createdAt,value
2019-05-11T00:00:21.742Z,35.25
2019-05-11T00:05:25.331Z,36.42
2019-05-11T00:10:28.874Z,37.97
2019-05-11T00:15:32.475Z,38.13
2019-05-11T00:20:36.029Z,38.94
2019-05-11T00:25:39.617Z,39.03
2019-05-11T00:30:43.160Z,39.35
2019-05-11T00:35:46.764Z,39.79
2019-05-11T00:40:50.315Z,39.70
2019-05-11T00:45:53.894Z,40.28
2019-05-11T00:50:57.465Z,39.95
2019-05-11T00:56:01.048Z,40.06
2019-05-11T01:01:05.025Z,40.45
2019-05-11T01:06:08.576Z,39.60
2019-05-11T01:11:12.150Z,37.59
2019-05-11T01:16:15.759Z,33.62
2019-05-11T01:21:19.308Z,29.20
2019-05-11T01:26:22.872Z,27.77
2019-05-11T01:31:26.441Z,28.23
2019-05-11T01:36:29.990Z,28.49
2019-05-11T01:41:33.576Z,29.33
2019-05-11T01:46:37.127Z,29.86
2019-05-11T01:51:40.743Z,30.44
2019-05-11T01:56:44.493Z,30.99
2019-05-11T02:01:48.455Z,31.48
2019-05-11T02:06:52.002Z,32.19
2019-05-11T02:11:55.602Z,33.05
2019-05-11T02:16:59.168Z,34.10
2019-05-11T02:22:02.760Z,35.71
2019-05-11T02:27:06.373Z,36.47
2019-05-11T02:32:09.928Z,37.60
2019-05-11T02:37:13.498Z,37.84
2019-05-11T02:42:17.092Z,38.51
2019-05-11T02:47:20.670Z,38.30
2019-05-11T02:52:24.323Z,39.04
2019-05-11T02:57:27.892Z,39.27
2019-05-11T03:02:31.464Z,39.49
2019-05-11T03:07:35.039Z,38.81
2019-05-11T03:12:38.658Z,39.55
2019-05-11T03:17:42.245Z,39.75
2019-05-11T03:22:45.832Z,39.00
2019-05-11T03:27:49.494Z,40.03
2019-05-11T03:32:53.094Z,39.40
2019-05-11T03:37:56.644Z,39.32
2019-05-11T03:43:00.260Z,38.90
2019-05-11T03:48:03.813Z,37.85
2019-05-11T03:53:07.386Z,35.11
2019-05-11T03:58:11.002Z,30.89
2019-05-11T04:03:14.561Z,28.24
2019-05-11T04:08:18.143Z,27.69
2019-05-11T04:13:21.739Z,28.27
2019-05-11T04:18:25.291Z,28.21
2019-05-11T04:23:28.849Z,28.73
2019-05-11T04:28:32.412Z,29.12
2019-05-11T04:33:35.979Z,29.62
2019-05-11T04:38:39.542Z,29.95
2019-05-11T04:43:43.129Z,30.34
2019-05-11T04:48:46.720Z,30.65
2019-05-11T04:53:50.298Z,31.02
2019-05-11T04:58:53.884Z,31.39
2019-05-11T05:04:12.252Z,31.89
2019-05-11T05:09:03.684Z,32.22
2019-05-11T05:14:10.165Z,32.62
2019-05-11T05:19:12.855Z,32.95
2019-05-11T05:24:16.393Z,33.20
2019-05-11T05:29:20.012Z,33.45
2019-05-11T05:34:23.556Z,33.46
2019-05-11T05:39:27.144Z,33.52
2019-05-11T05:44:30.710Z,33.66
2019-05-11T05:49:34.278Z,33.83
2019-05-11T05:54:37.879Z,33.90
2019-05-11T05:59:41.421Z,34.03
2019-05-11T06:04:45.008Z,34.06
2019-05-11T06:09:48.559Z,34.41
2019-05-11T06:14:52.153Z,34.53
2019-05-11T06:19:55.734Z,34.65
2019-05-11T06:24:59.286Z,34.40
2019-05-11T06:30:02.891Z,34.15
2019-05-11T06:35:07.351Z,34.18
2019-05-11T06:40:10.916Z,34.05
2019-05-11T06:45:14.476Z,34.17
2019-05-11T06:50:18.054Z,34.12
2019-05-11T06:55:21.620Z,34.40
2019-05-11T07:00:25.235Z,34.45
2019-05-11T07:05:28.772Z,34.38
2019-05-11T07:10:32.341Z,34.51
2019-05-11T07:15:35.916Z,34.31
2019-05-11T07:20:50.220Z,34.29
2019-05-11T07:25:44.812Z,34.31
2019-05-11T07:30:48.405Z,34.37
2019-05-11T07:35:52.657Z,34.34
2019-05-11T07:40:58.199Z,34.33
2019-05-11T07:46:02.069Z,34.29
2019-05-11T07:51:08.931Z,34.29
2019-05-11T07:56:12.633Z,34.21
2019-05-11T08:01:18.920Z,34.25
2019-05-11T08:06:22.374Z,34.27
2019-05-11T08:11:31.211Z,34.29
2019-05-11T08:16:33.312Z,34.17
2019-05-11T08:21:38.826Z,34.06
2019-05-11T08:26:42.358Z,34.10
2019-05-11T08:31:45.959Z,34.29
2019-05-11T08:36:49.525Z,34.26
2019-05-11T08:41:53.103Z,34.53
2019-05-11T08:46:58.251Z,34.06
2019-05-11T08:52:02.085Z,34.09
2019-05-11T08:57:07.998Z,34.23
2019-05-11T09:02:10.967Z,34.18
2019-05-11T09:07:14.543Z,34.23
2019-05-11T09:12:18.422Z,34.29
2019-05-11T09:17:22.230Z,34.29
2019-05-11T09:22:28.116Z,33.08
2019-05-11T09:27:32.150Z,33.09
2019-05-11T09:32:38.487Z,34.28
2019-05-11T09:37:41.624Z,34.01
2019-05-11T09:42:45.216Z,32.49
2019-05-11T09:47:49.590Z,33.43
2019-05-11T09:52:53.421Z,32.21
2019-05-11T09:57:57.994Z,33.20
2019-05-11T10:03:01.769Z,33.63
2019-05-11T10:08:07.719Z,34.33
2019-05-11T10:13:10.681Z,34.40
2019-05-11T10:18:14.269Z,33.60
2019-05-11T10:23:18.692Z,33.84
2019-05-11T10:28:22.421Z,33.99
2019-05-11T10:33:28.157Z,33.78
2019-05-11T10:38:51.578Z,35.23
2019-05-11T10:43:57.789Z,34.83
2019-05-11T10:49:01.356Z,35.75
2019-05-11T10:54:05.180Z,35.47
2019-05-11T10:59:08.766Z,34.62
2019-05-11T11:04:13.946Z,32.51
2019-05-11T11:09:17.890Z,32.27
2019-05-11T11:14:21.653Z,33.71
2019-05-11T11:19:28.922Z,34.45
2019-05-11T11:24:32.992Z,35.17
2019-05-11T11:29:38.702Z,35.46
2019-05-11T11:34:41.905Z,35.48
2019-05-11T11:39:47.533Z,35.91
2019-05-11T11:44:50.767Z,36.75
2019-05-11T11:49:54.384Z,37.44
2019-05-11T11:54:58.631Z,37.84
2019-05-11T12:00:02.376Z,38.31
2019-05-11T12:05:08.866Z,38.36
2019-05-11T12:10:12.706Z,38.77
2019-05-11T12:15:17.818Z,38.83
2019-05-11T12:20:21.553Z,39.00
2019-05-11T12:25:27.608Z,38.96
2019-05-11T12:30:31.210Z,38.59
2019-05-11T12:35:34.786Z,37.35
2019-05-11T12:40:38.918Z,37.23
2019-05-11T12:45:42.641Z,37.15
2019-05-11T12:50:48.378Z,30.12
2019-05-11T12:55:51.637Z,30.05
2019-05-11T13:07:39.164Z,33.14
2019-05-11T13:17:42.546Z,31.12
2019-05-11T13:27:46.137Z,32.68
2019-05-11T13:37:49.741Z,33.38
2019-05-11T13:47:55.913Z,34.11
2019-05-11T13:57:58.656Z,35.04
2019-05-11T14:08:03.761Z,33.69
2019-05-11T14:18:09.375Z,37.38
2019-05-11T14:28:12.614Z,37.85
2019-05-11T14:38:18.565Z,38.04
2019-05-11T14:48:26.749Z,38.33
2019-05-11T14:58:27.977Z,41.25
2019-05-11T15:08:31.695Z,41.01
2019-05-11T15:18:41.311Z,40.72
2019-05-11T15:28:40.667Z,39.50
2019-05-11T15:38:44.243Z,42.01
2019-05-11T15:48:56.623Z,40.46
2019-05-11T15:58:53.142Z,34.20
2019-05-11T16:08:58.557Z,32.12
2019-05-11T16:19:13.562Z,34.75
2019-05-11T16:29:08.538Z,36.66
2019-05-11T16:39:12.680Z,38.92
2019-05-11T16:49:26.153Z,40.57
2019-05-11T16:59:21.619Z,41.53
2019-05-11T17:09:25.210Z,43.26
2019-05-11T17:19:42.185Z,44.31
2019-05-11T17:29:34.259Z,44.63
2019-05-11T17:39:38.561Z,44.18
2019-05-11T17:49:56.188Z,44.28
2019-05-11T17:59:47.735Z,43.21
2019-05-11T18:09:51.294Z,43.61
2019-05-11T18:19:54.873Z,41.23
2019-05-11T18:29:58.440Z,44.27
2019-05-11T18:40:02.074Z,44.96
2019-05-11T18:50:05.863Z,44.96
2019-05-11T19:00:09.416Z,43.13
2019-05-11T19:10:13.001Z,40.76
2019-05-11T19:20:17.842Z,33.40
2019-05-11T19:30:21.595Z,33.80
2019-05-11T19:40:25.401Z,35.19
2019-05-11T19:50:28.971Z,36.39
2019-05-11T20:00:32.547Z,39.27
2019-05-11T20:10:38.232Z,41.89
2019-05-11T20:20:41.689Z,43.66
2019-05-11T20:30:45.302Z,44.38
2019-05-11T20:40:48.901Z,42.25
2019-05-11T20:50:52.526Z,43.36
2019-05-11T21:00:56.114Z,45.54
2019-05-11T21:10:59.817Z,46.25
2019-05-11T21:21:03.399Z,45.87
2019-05-11T21:31:08.058Z,45.50
2019-05-11T21:41:12.646Z,44.03
2019-05-11T21:51:18.136Z,44.20
2019-05-11T22:01:21.648Z,44.07
2019-05-11T22:11:25.448Z,44.55
2019-05-11T22:21:29.174Z,43.80
2019-05-11T22:31:32.822Z,45.15
2019-05-11T22:41:39.393Z,41.96
2019-05-11T22:51:42.051Z,32.91
2019-05-11T23:01:48.170Z,33.10
2019-05-11T23:11:50.906Z,35.07
2019-05-11T23:21:54.473Z,36.81
2019-05-11T23:31:58.438Z,38.20
2019-05-11T23:42:02.058Z,39.45
2019-05-11T23:52:07.633Z,40.36
